Time;durP1;ratioP1;P1;durP2;ratioP2;P2;SDS_P1;SDS_P2;PMS_P1;PMS_P2;Temp;Humidity;BMP_temperature;BMP_pressure;BME280_temperature;BME280_humidity;BME280_pressure;Samples;Min_cycle;Max_cycle;Signal;HPM_P1;HPM_P2
2023/04/01 00:01:00;;;;;;;4.70;1.70;;;10.00;1.00;;;;;;5085593;28;20256;-71
2023/04/01 00:03:28;;;;;;;5.10;1.40;;;10.00;1.00;;;;;;5109559;28;20594;-70
2023/04/01 00:05:58;;;;;;;5.10;1.10;;;10.00;1.00;;;;;;5095197;28;20189;-71
2023/04/01 00:08:26;;;;;;;3.57;1.33;;;10.00;1.00;;;;;;5111413;28;20696;-70
2023/04/01 00:10:53;;;;;;;5.97;1.80;;;9.90;1.00;;;;;;5108367;28;20191;-72
2023/04/01 00:13:21;;;;;;;1.70;1.20;;;9.90;1.00;;;;;;5112023;28;20194;-70
2023/04/01 00:15:49;;;;;;;4.07;1.20;;;9.90;1.00;;;;;;5093340;28;20209;-74
2023/04/01 00:18:16;;;;;;;3.83;1.50;;;9.90;1.00;;;;;;5086175;28;20197;-82
2023/04/01 00:20:45;;;;;;;3.47;1.63;;;9.80;1.00;;;;;;5077434;28;20198;-69
2023/04/01 00:23:13;;;;;;;1.77;1.20;;;9.80;1.00;;;;;;5086895;28;20250;-70
2023/04/01 00:25:41;;;;;;;1.10;1.00;;;9.80;1.00;;;;;;5066661;28;20315;-72
2023/04/01 00:28:08;;;;;;;2.47;1.20;;;9.80;1.00;;;;;;5101799;28;20214;-69
2023/04/01 00:30:36;;;;;;;3.17;1.20;;;9.80;34.90;;;;;;5107142;28;20239;-71
2023/04/01 00:33:04;;;;;;;4.13;1.40;;;9.70;93.40;;;;;;5100312;28;20553;-72
2023/04/01 00:35:32;;;;;;;5.43;1.20;;;9.70;32.00;;;;;;5069567;28;20220;-71
2023/04/01 00:37:59;;;;;;;3.13;1.40;;;9.70;99.90;;;;;;5091660;28;20762;-75
2023/04/01 00:40:29;;;;;;;3.60;1.23;;;9.60;99.90;;;;;;5091974;28;20250;-72
2023/04/01 00:42:56;;;;;;;4.60;1.23;;;9.60;99.90;;;;;;5090673;28;20284;-71
2023/04/01 00:45:36;;;;;;;3.80;1.40;;;9.50;1.00;;;;;;5084408;28;20213;-73
2023/04/01 00:48:11;;;;;;;3.27;1.30;;;9.50;1.00;;;;;;5099351;28;20289;-72
2023/04/01 00:50:41;;;;;;;4.97;2.17;;;9.50;1.00;;;;;;5102498;28;20296;-73
2023/04/01 00:53:09;;;;;;;2.70;1.10;;;9.50;1.00;;;;;;5094238;28;20685;-71
2023/04/01 00:55:41;;;;;;;2.80;1.20;;;9.40;99.90;;;;;;5074880;28;20204;-71
2023/04/01 00:58:14;;;;;;;2.97;1.13;;;9.40;99.90;;;;;;5084143;28;20279;-69
2023/04/01 01:00:42;;;;;;;3.97;1.40;;;9.30;99.90;;;;;;5082759;28;20321;-75
2023/04/01 01:03:09;;;;;;;4.43;1.33;;;9.40;99.90;;;;;;5082791;22;20223;-61
2023/04/01 01:05:57;;;;;;;3.43;1.23;;;9.40;30.50;;;;;;5040087;28;20702;-60
2023/04/01 01:08:39;;;;;;;3.60;1.43;;;9.40;99.90;;;;;;5046946;28;20229;-60
2023/04/01 01:11:10;;;;;;;3.10;1.20;;;9.40;99.90;;;;;;5049298;28;20828;-60
2023/04/01 01:13:45;;;;;;;4.07;1.23;;;9.30;1.00;;;;;;5031438;28;20231;-59
2023/04/01 01:16:26;;;;;;;1.20;1.10;;;9.40;1.00;;;;;;5046182;28;20213;-60
2023/04/01 01:19:01;;;;;;;1.77;1.10;;;9.40;93.20;;;;;;5047796;28;20241;-61
2023/04/01 01:21:30;;;;;;;6.03;1.40;;;9.40;99.90;;;;;;5047917;28;20202;-60
2023/04/01 01:24:25;;;;;;;1.57;1.10;;;9.30;99.90;;;;;;5045432;28;20795;-59
2023/04/01 01:27:03;;;;;;;4.43;1.30;;;9.30;99.90;;;;;;5046542;28;20745;-60
2023/04/01 01:29:47;;;;;;;2.27;1.23;;;9.30;99.90;;;;;;5044975;28;20697;-60
2023/04/01 01:32:42;;;;;;;5.53;1.40;;;9.30;99.90;;;;;;5044908;28;20259;-59
2023/04/01 01:35:30;;;;;;;1.70;1.10;;;9.30;99.90;;;;;;5038640;28;20627;-60
2023/04/01 01:38:10;;;;;;;2.30;1.23;;;9.30;73.20;;;;;;5030728;28;20290;-60
2023/04/01 01:40:42;;;;;;;2.77;1.20;;;9.30;99.90;;;;;;5045812;28;20199;-61
2023/04/01 01:43:15;;;;;;;2.90;1.43;;;9.20;99.90;;;;;;5027697;28;20206;-59
2023/04/01 01:45:49;;;;;;;3.90;1.37;;;9.20;83.60;;;;;;5030480;28;20255;-59
2023/04/01 01:48:16;;;;;;;4.47;1.27;;;9.20;99.90;;;;;;5048588;28;20188;-59
2023/04/01 01:50:45;;;;;;;2.00;1.43;;;9.20;99.90;;;;;;5046929;28;20188;-60
2023/04/01 01:53:14;;;;;;;1.30;1.00;;;9.30;10.00;;;;;;5047178;28;20196;-59
2023/04/01 01:55:45;;;;;;;2.83;1.17;;;9.30;1.00;;;;;;5062579;28;20214;-59
2023/04/01 01:58:40;;;;;;;2.53;1.27;;;9.30;29.10;;;;;;5046411;28;20214;-59
2023/04/01 02:01:27;;;;;;;1.20;1.07;;;9.30;1.00;;;;;;5063539;28;20203;-62
2023/04/01 02:03:58;;;;;;;1.10;0.87;;;9.30;1.00;;;;;;5045742;28;20595;-59
2023/04/01 02:06:30;;;;;;;2.20;1.07;;;9.30;1.00;;;;;;5063353;28;20207;-58
2023/04/01 02:09:03;;;;;;;1.90;1.10;;;9.30;1.00;;;;;;5043598;28;20203;-58
2023/04/01 02:11:52;;;;;;;1.70;1.20;;;9.30;1.00;;;;;;5044627;28;20203;-59
2023/04/01 02:14:29;;;;;;;2.73;1.20;;;9.30;1.00;;;;;;5037594;28;20212;-59
2023/04/01 02:17:07;;;;;;;1.20;1.10;;;9.30;1.00;;;;;;5060946;28;20210;-59
2023/04/01 02:19:40;;;;;;;1.70;1.20;;;9.30;1.00;;;;;;5045846;28;20199;-59
2023/04/01 02:22:12;;;;;;;2.83;1.30;;;9.30;1.00;;;;;;5044460;28;20245;-59
2023/04/01 02:24:41;;;;;;;3.23;1.13;;;9.30;1.00;;;;;;5059834;28;20331;-59
2023/04/01 02:27:10;;;;;;;1.93;1.13;;;9.20;1.00;;;;;;5044566;28;20222;-59
2023/04/01 02:29:37;;;;;;;2.73;1.20;;;9.30;1.00;;;;;;5060393;28;20203;-58
2023/04/01 02:32:08;;;;;;;3.27;1.30;;;9.20;1.00;;;;;;5047121;28;20509;-59
2023/04/01 02:34:36;;;;;;;2.83;1.20;;;9.20;99.90;;;;;;5046658;28;20658;-59
2023/04/01 02:37:04;;;;;;;3.40;1.07;;;9.20;99.90;;;;;;5043313;28;20204;-59
2023/04/01 02:39:31;;;;;;;1.80;1.37;;;9.20;1.00;;;;;;5045413;28;20200;-60
2023/04/01 02:41:58;;;;;;;2.83;1.60;;;9.20;1.00;;;;;;5037220;28;20208;-60
2023/04/01 02:44:25;;;;;;;1.73;1.00;;;9.20;1.00;;;;;;5053266;28;20302;-59
2023/04/01 02:46:52;;;;;;;1.83;1.10;;;9.20;1.00;;;;;;5046118;28;20195;-60
2023/04/01 02:49:19;;;;;;;1.97;1.00;;;9.10;1.00;;;;;;5027965;28;20202;-60
2023/04/01 02:51:46;;;;;;;2.13;1.30;;;9.20;1.00;;;;;;5044320;28;20252;-60
2023/04/01 02:54:14;;;;;;;2.97;1.30;;;9.20;1.00;;;;;;5046047;28;20211;-66
2023/04/01 02:56:42;;;;;;;1.73;1.10;;;9.10;1.00;;;;;;5030592;28;20294;-60
2023/04/01 02:59:09;;;;;;;1.07;0.97;;;9.10;1.00;;;;;;5045016;28;20668;-58
2023/04/01 03:01:36;;;;;;;2.60;1.40;;;9.10;1.00;;;;;;5045149;28;20196;-59
2023/04/01 03:04:03;;;;;;;1.83;1.10;;;9.10;1.00;;;;;;5048028;28;20250;-59
2023/04/01 03:06:30;;;;;;;1.40;1.07;;;9.10;46.00;;;;;;5057864;28;20558;-59
2023/04/01 03:08:57;;;;;;;2.03;1.20;;;9.10;1.00;;;;;;5049566;28;20290;-62
2023/04/01 03:11:26;;;;;;;1.23;1.07;;;9.10;1.00;;;;;;5048085;28;20221;-59
2023/04/01 03:13:53;;;;;;;2.40;1.10;;;9.10;99.90;;;;;;5066344;28;20257;-60
2023/04/01 03:16:19;;;;;;;1.73;1.13;;;9.10;99.90;;;;;;5034032;28;20231;-58
2023/04/01 03:18:49;;;;;;;1.40;1.10;;;9.10;1.00;;;;;;5059084;28;20294;-58
2023/04/01 03:21:20;;;;;;;2.60;1.20;;;9.10;1.00;;;;;;5042017;28;20291;-59
2023/04/01 03:23:47;;;;;;;2.63;1.10;;;9.10;1.00;;;;;;5030925;28;20196;-59
2023/04/01 03:26:14;;;;;;;2.53;1.30;;;9.10;1.00;;;;;;5050951;28;20269;-60
2023/04/01 03:28:42;;;;;;;1.33;1.13;;;9.10;99.90;;;;;;5049964;28;20210;-61
2023/04/01 03:31:09;;;;;;;1.30;1.07;;;9.10;16.20;;;;;;5066405;28;20666;-59
2023/04/01 03:33:43;;;;;;;1.00;1.00;;;9.10;1.00;;;;;;5049711;28;20754;-59
2023/04/01 03:36:12;;;;;;;4.63;1.30;;;9.10;1.00;;;;;;5056677;28;20250;-60
2023/04/01 03:38:40;;;;;;;1.20;1.00;;;9.10;1.00;;;;;;5045199;28;20198;-60
2023/04/01 03:41:11;;;;;;;1.80;1.00;;;9.10;1.00;;;;;;5026064;28;20274;-61
2023/04/01 03:43:38;;;;;;;1.47;0.90;;;9.20;1.00;;;;;;5033295;28;20543;-59
2023/04/01 03:46:05;;;;;;;2.83;1.10;;;9.20;1.00;;;;;;5048872;28;20224;-61
2023/04/01 03:48:32;;;;;;;1.07;0.93;;;9.20;1.00;;;;;;5040400;28;20204;-59
2023/04/01 03:50:59;;;;;;;2.03;0.87;;;9.20;1.00;;;;;;5048670;28;20207;-59
2023/04/01 03:53:26;;;;;;;0.70;0.70;;;9.20;1.00;;;;;;5030252;28;20198;-59
2023/04/01 03:55:57;;;;;;;0.97;0.80;;;9.20;1.00;;;;;;5049559;28;20195;-60
2023/04/01 03:58:24;;;;;;;2.23;1.07;;;9.20;1.00;;;;;;5040787;28;20250;-59
2023/04/01 04:00:52;;;;;;;0.80;0.80;;;9.10;15.60;;;;;;5049065;28;20574;-58
2023/04/01 04:03:19;;;;;;;0.70;0.70;;;9.10;99.90;;;;;;5031957;28;20726;-59
2023/04/01 04:05:48;;;;;;;1.27;1.00;;;9.10;99.90;;;;;;5048585;28;20323;-59
2023/04/01 04:08:17;;;;;;;2.53;1.00;;;9.00;1.00;;;;;;5032206;28;20195;-60
2023/04/01 04:10:46;;;;;;;1.20;1.10;;;9.00;1.00;;;;;;5050256;28;20282;-59
2023/04/01 04:13:13;;;;;;;1.90;1.40;;;9.00;1.00;;;;;;5050791;28;20191;-59
2023/04/01 04:15:47;;;;;;;1.23;1.10;;;9.10;1.00;;;;;;5046786;28;20202;-61
2023/04/01 04:18:15;;;;;;;1.20;1.10;;;9.00;1.00;;;;;;5030804;28;20581;-60
2023/04/01 04:20:50;;;;;;;2.23;1.30;;;9.00;1.00;;;;;;5048490;28;20253;-61
2023/04/01 04:23:18;;;;;;;1.97;1.70;;;9.00;1.00;;;;;;5064523;28;20307;-60
2023/04/01 04:26:06;;;;;;;2.00;1.07;;;9.00;99.90;;;;;;5064960;28;20236;-60
2023/04/01 04:28:34;;;;;;;1.43;1.00;;;9.00;99.90;;;;;;5058081;28;20213;-59
2023/04/01 04:31:02;;;;;;;1.10;0.90;;;9.00;99.90;;;;;;5065760;28;20544;-59
2023/04/01 04:33:29;;;;;;;3.50;1.00;;;9.00;1.00;;;;;;5048719;28;20304;-59
2023/04/01 04:35:57;;;;;;;1.33;1.00;;;9.00;1.00;;;;;;5050399;28;20278;-60
2023/04/01 04:38:25;;;;;;;1.20;0.90;;;8.90;1.00;;;;;;5047147;28;20210;-60
2023/04/01 04:40:53;;;;;;;2.97;1.00;;;8.90;1.00;;;;;;5032314;28;20238;-60
2023/04/01 04:43:20;;;;;;;2.90;1.10;;;8.90;99.90;;;;;;5028542;28;20227;-61
2023/04/01 04:45:47;;;;;;;1.97;1.10;;;8.80;1.00;;;;;;5057772;28;20290;-60
2023/04/01 04:48:18;;;;;;;3.77;1.67;;;8.80;1.00;;;;;;5045634;28;20294;-61
2023/04/01 04:50:48;;;;;;;3.57;0.90;;;8.80;1.00;;;;;;5064830;28;20587;-63
2023/04/01 04:53:17;;;;;;;1.73;1.10;;;8.80;1.00;;;;;;5037816;28;20626;-64
2023/04/01 04:55:46;;;;;;;1.00;1.00;;;8.80;1.00;;;;;;5064345;28;20214;-60
2023/04/01 04:58:32;;;;;;;1.23;1.07;;;8.80;1.00;;;;;;5046284;28;20211;-61
2023/04/01 05:01:14;;;;;;;1.63;1.20;;;8.80;4.40;;;;;;5046753;28;20207;-62
2023/04/01 05:03:42;;;;;;;2.67;1.07;;;8.80;1.00;;;;;;5062924;28;20237;-59
2023/04/01 05:06:12;;;;;;;1.33;1.00;;;8.70;96.40;;;;;;5045260;28;20319;-58
2023/04/01 05:08:41;;;;;;;1.80;1.17;;;8.70;1.00;;;;;;5060057;28;20192;-59
2023/04/01 05:11:18;;;;;;;1.87;1.23;;;8.80;1.00;;;;;;5046792;28;20561;-60
2023/04/01 05:13:45;;;;;;;1.40;1.30;;;8.80;32.00;;;;;;5031348;28;20218;-61
2023/04/01 05:16:15;;;;;;;1.67;1.50;;;8.80;8.70;;;;;;5048078;28;20733;-60
2023/04/01 05:18:42;;;;;;;2.37;1.40;;;8.80;99.90;;;;;;5046469;28;20204;-60
2023/04/01 05:21:11;;;;;;;1.83;1.73;;;8.80;99.90;;;;;;5039858;28;20199;-59
2023/04/01 05:23:38;;;;;;;1.60;1.50;;;8.80;1.00;;;;;;5063117;28;20199;-60
2023/04/01 05:26:10;;;;;;;3.10;1.90;;;8.90;1.00;;;;;;5048313;28;20908;-60
2023/04/01 05:28:38;;;;;;;3.47;2.43;;;8.90;93.00;;;;;;5059395;28;20321;-58
2023/04/01 05:31:06;;;;;;;3.43;1.90;;;8.90;1.00;;;;;;5046674;28;20242;-60
2023/04/01 05:33:39;;;;;;;2.03;1.63;;;8.90;1.00;;;;;;5063851;28;20279;-60
2023/04/01 05:36:16;;;;;;;1.70;1.60;;;8.90;1.00;;;;;;5046803;28;20240;-59
2023/04/01 05:38:45;;;;;;;1.93;1.80;;;8.90;1.00;;;;;;5046815;28;20265;-59
2023/04/01 05:41:14;;;;;;;2.03;1.90;;;9.00;1.00;;;;;;5023980;28;20354;-61
2023/04/01 05:43:44;;;;;;;1.90;1.80;;;9.00;99.90;;;;;;5047310;28;20212;-59
2023/04/01 05:46:30;;;;;;;4.07;1.90;;;9.00;99.90;;;;;;5039466;28;20723;-60
2023/04/01 05:49:05;;;;;;;2.30;2.10;;;9.00;1.00;;;;;;5047598;28;20211;-65
2023/04/01 05:51:32;;;;;;;1.87;1.60;;;9.00;92.10;;;;;;5047245;28;20199;-60
2023/04/01 05:53:59;;;;;;;1.80;1.70;;;9.10;77.90;;;;;;5055624;28;20199;-59
2023/04/01 05:56:26;;;;;;;2.00;1.60;;;9.10;1.00;;;;;;5046718;28;20234;-61
2023/04/01 05:58:54;;;;;;;2.23;1.70;;;9.10;1.00;;;;;;5047338;28;20222;-61
2023/04/01 06:01:23;;;;;;;2.50;1.80;;;9.10;99.90;;;;;;5047135;28;20234;-60
2023/04/01 06:03:50;;;;;;;2.07;1.87;;;9.10;1.00;;;;;;5042787;28;20301;-60
2023/04/01 06:06:27;;;;;;;2.40;1.70;;;9.20;99.90;;;;;;5036326;28;20219;-60
2023/04/01 06:09:13;;;;;;;2.03;1.70;;;9.20;99.90;;;;;;5042555;28;20237;-60
2023/04/01 06:12:06;;;;;;;1.80;1.70;;;9.20;1.00;;;;;;5059675;28;20199;-58
2023/04/01 06:14:55;;;;;;;2.33;1.60;;;9.30;1.00;;;;;;5033315;28;20692;-61
2023/04/01 06:17:49;;;;;;;2.10;1.90;;;9.30;1.00;;;;;;5039967;28;20556;-60
2023/04/01 06:20:52;;;;;;;2.60;1.60;;;9.30;1.00;;;;;;5061643;28;20798;-60
2023/04/01 06:23:32;;;;;;;4.57;1.63;;;9.20;99.90;;;;;;5038459;28;20252;-59
2023/04/01 06:26:26;;;;;;;2.83;1.50;;;9.30;99.90;;;;;;5038194;28;20219;-60
2023/04/01 06:29:15;;;;;;;2.97;1.60;;;9.40;1.00;;;;;;5062207;28;20192;-59
2023/04/01 06:32:08;;;;;;;3.33;1.60;;;9.40;99.90;;;;;;5040001;28;20200;-61
2023/04/01 06:34:58;;;;;;;1.70;1.60;;;9.50;99.90;;;;;;5038719;28;20290;-59
2023/04/01 06:37:52;;;;;;;1.50;1.40;;;9.60;1.00;;;;;;5062620;28;20657;-62
2023/04/01 06:40:31;;;;;;;2.30;1.53;;;9.60;1.00;;;;;;5044103;28;20199;-59
2023/04/01 06:43:14;;;;;;;2.33;1.20;;;9.60;1.00;;;;;;5053970;28;20195;-62
2023/04/01 06:46:19;;;;;;;1.37;1.27;;;9.60;1.00;;;;;;5049271;28;20694;-59
2023/04/01 06:49:27;;;;;;;1.53;1.43;;;9.70;1.00;;;;;;5047769;28;20225;-61
2023/04/01 06:52:31;;;;;;;1.60;1.47;;;9.70;1.00;;;;;;5060594;28;20348;-60
2023/04/01 06:55:33;;;;;;;2.90;1.47;;;9.70;1.00;;;;;;5047433;28;20206;-60
2023/04/01 06:58:22;;;;;;;1.50;1.40;;;9.80;1.00;;;;;;5048374;28;20288;-60
2023/04/01 07:01:13;;;;;;;2.23;1.43;;;9.80;1.00;;;;;;5063688;28;20809;-63
2023/04/01 07:03:44;;;;;;;1.30;1.20;;;9.80;1.00;;;;;;5046319;28;20238;-60
2023/04/01 07:06:38;;;;;;;3.00;1.77;;;9.90;1.00;;;;;;5061107;28;20286;-61
2023/04/01 07:09:11;;;;;;;1.57;1.27;;;10.10;1.00;;;;;;5029107;28;20831;-60
2023/04/01 07:12:02;;;;;;;1.83;1.33;;;10.10;1.00;;;;;;5047796;28;20199;-60
2023/04/01 07:14:49;;;;;;;1.43;1.30;;;10.10;99.90;;;;;;5047267;28;20215;-58
2023/04/01 07:17:30;;;;;;;4.10;1.40;;;10.20;99.90;;;;;;5045581;28;20192;-62
2023/04/01 07:20:13;;;;;;;1.50;1.20;;;10.30;99.90;;;;;;5047995;28;20195;-59
2023/04/01 07:22:48;;;;;;;1.30;1.20;;;10.60;26.70;;;;;;5039749;28;20282;-58
2023/04/01 07:25:46;;;;;;;3.43;1.10;;;10.60;1.00;;;;;;5044136;28;20253;-58
2023/04/01 07:28:32;;;;;;;1.20;1.10;;;10.80;1.00;;;;;;5047778;28;20199;-60
2023/04/01 07:31:32;;;;;;;1.47;1.00;;;11.00;1.00;;;;;;5045361;28;20195;-59
2023/04/01 07:34:11;;;;;;;2.97;1.20;;;10.80;1.00;;;;;;5029316;28;20254;-59
2023/04/01 07:36:44;;;;;;;1.30;1.03;;;10.70;6.70;;;;;;5061452;28;20291;-59
2023/04/01 07:39:31;;;;;;;1.53;1.23;;;10.70;1.00;;;;;;5045006;28;20195;-64
2023/04/01 07:43:05;;;;;;;1.53;0.90;;;10.60;1.00;;;;;;5046303;28;20210;-59
2023/04/01 07:45:47;;;;;;;1.00;0.90;;;10.70;1.00;;;;;;5062009;28;20207;-59
2023/04/01 07:48:36;;;;;;;1.13;1.03;;;10.60;1.00;;;;;;5054805;28;20222;-59
2023/04/01 07:51:12;;;;;;;1.23;1.00;;;10.70;1.00;;;;;;5048051;28;20614;-60
2023/04/01 07:53:56;;;;;;;1.20;1.13;;;10.80;1.00;;;;;;5048798;28;20823;-60
2023/04/01 07:56:41;;;;;;;1.20;1.10;;;10.90;1.00;;;;;;5066030;28;20277;-59
2023/04/01 07:59:14;;;;;;;1.63;1.37;;;11.00;1.00;;;;;;5065658;28;20199;-60
2023/04/01 08:02:37;;;;;;;2.13;0.83;;;11.00;1.00;;;;;;5049077;28;20574;-60
2023/04/01 08:05:19;;;;;;;1.73;1.20;;;11.10;1.00;;;;;;5045435;28;20211;-59
2023/04/01 08:08:06;;;;;;;1.17;1.00;;;11.10;1.00;;;;;;5046352;28;20192;-59
2023/04/01 08:11:13;;;;;;;3.20;1.10;;;11.00;1.00;;;;;;5050623;28;20293;-59
2023/04/01 08:14:16;;;;;;;2.50;1.20;;;11.00;1.00;;;;;;5056469;28;20665;-60
2023/04/01 08:17:27;;;;;;;1.20;1.10;;;11.00;1.00;;;;;;5019105;28;20210;-60
2023/04/01 08:20:10;;;;;;;1.20;1.07;;;10.90;1.00;;;;;;5063719;28;20195;-59
2023/04/01 08:22:52;;;;;;;0.83;0.83;;;10.90;1.00;;;;;;5029569;28;20222;-58
2023/04/01 08:25:30;;;;;;;1.30;1.00;;;11.10;1.00;;;;;;5039565;28;20671;-58
2023/04/01 08:28:08;;;;;;;2.33;1.10;;;11.00;1.00;;;;;;5062033;28;20302;-59
2023/04/01 08:30:51;;;;;;;1.70;1.10;;;11.20;1.00;;;;;;5061417;28;20341;-59
2023/04/01 08:33:29;;;;;;;1.13;0.90;;;11.00;1.00;;;;;;5050068;28;20678;-59
2023/04/01 08:36:21;;;;;;;1.00;1.00;;;11.10;1.00;;;;;;5048001;28;20209;-61
2023/04/01 08:39:20;;;;;;;1.93;1.10;;;11.10;1.00;;;;;;5047295;28;20188;-60
2023/04/01 08:42:10;;;;;;;7.07;1.17;;;11.00;1.00;;;;;;5046356;28;20203;-60
2023/04/01 08:44:43;;;;;;;1.13;1.00;;;11.00;1.00;;;;;;5045161;28;20658;-59
2023/04/01 08:47:36;;;;;;;1.10;1.00;;;10.70;2.30;;;;;;5046328;28;20211;-59
2023/04/01 08:50:27;;;;;;;3.90;1.03;;;10.70;99.90;;;;;;5062745;28;20200;-58
2023/04/01 08:53:27;;;;;;;0.90;0.90;;;10.70;99.90;;;;;;5061028;28;20252;-60
2023/04/01 08:56:19;;;;;;;1.90;1.17;;;10.50;99.90;;;;;;5048598;28;20191;-60
2023/04/01 08:59:03;;;;;;;1.27;1.03;;;10.60;1.00;;;;;;5047885;28;20199;-61
2023/04/01 09:02:08;;;;;;;2.40;1.87;;;10.40;99.90;;;;;;5046391;28;20214;-60
2023/04/01 09:05:24;;;;;;;2.40;2.20;;;10.50;99.90;;;;;;5038661;28;20240;-61
2023/04/01 09:07:59;;;;;;;3.00;1.53;;;10.60;1.00;;;;;;5062857;28;20321;-59
2023/04/01 09:10:48;;;;;;;3.77;3.00;;;10.50;99.90;;;;;;5030669;28;20286;-58
2023/04/01 09:13:52;;;;;;;2.63;2.00;;;10.60;99.90;;;;;;5062165;28;20211;-59
2023/04/01 09:16:35;;;;;;;3.10;2.77;;;10.70;99.90;;;;;;5047084;28;20689;-60
2023/04/01 09:19:26;;;;;;;2.43;1.80;;;10.70;99.90;;;;;;5048504;28;20241;-59
2023/04/01 09:22:11;;;;;;;4.80;1.83;;;10.70;99.90;;;;;;5047647;28;20214;-59
2023/04/01 09:25:07;;;;;;;3.80;3.23;;;10.80;99.90;;;;;;5061151;28;20191;-58
2023/04/01 09:28:05;;;;;;;3.33;3.00;;;10.80;99.90;;;;;;5044015;28;20250;-60
2023/04/01 09:30:51;;;;;;;6.00;2.60;;;10.80;99.90;;;;;;5036432;28;20650;-60
2023/04/01 09:33:51;;;;;;;2.20;2.00;;;10.90;99.90;;;;;;5048954;28;20298;-61
2023/04/01 09:36:37;;;;;;;8.70;7.90;;;11.00;99.90;;;;;;5045846;28;20654;-65
2023/04/01 09:39:23;;;;;;;2.00;1.80;;;11.10;99.90;;;;;;5045601;28;20744;-61
2023/04/01 09:42:00;;;;;;;2.40;2.20;;;11.30;99.90;;;;;;5044965;28;20219;-60
2023/04/01 09:45:00;;;;;;;1.83;1.43;;;11.30;99.90;;;;;;5046612;28;20199;-59
2023/04/01 09:47:39;;;;;;;2.30;1.40;;;11.20;99.90;;;;;;5062956;28;20220;-59
2023/04/01 09:50:06;;;;;;;1.57;1.30;;;11.10;99.90;;;;;;5047174;28;20286;-60
2023/04/01 09:52:52;;;;;;;2.50;1.43;;;11.10;80.20;;;;;;5046174;28;20196;-60
2023/04/01 09:55:50;;;;;;;4.50;3.70;;;11.30;34.90;;;;;;5044862;28;20286;-58
2023/04/01 09:58:38;;;;;;;2.20;2.00;;;11.50;1.00;;;;;;5047848;28;20203;-60
2023/04/01 10:01:40;;;;;;;1.70;1.60;;;11.50;1.00;;;;;;5046674;28;20206;-62
2023/04/01 10:04:15;;;;;;;3.93;2.47;;;11.50;1.00;;;;;;5059527;28;20199;-60
2023/04/01 10:07:04;;;;;;;6.97;4.87;;;11.30;1.00;;;;;;5056579;28;20710;-62
2023/04/01 10:09:50;;;;;;;6.50;4.87;;;11.20;1.00;;;;;;5034868;28;20202;-59
2023/04/01 10:12:42;;;;;;;9.97;5.97;;;11.20;78.20;;;;;;5019044;28;20257;-59
2023/04/01 10:15:57;;;;;;;9.57;7.00;;;11.10;99.90;;;;;;5039499;28;20242;-58
2023/04/01 10:18:36;;;;;;;7.10;5.30;;;11.10;99.90;;;;;;5027646;28;20302;-58
2023/04/01 10:21:30;;;;;;;2.47;2.23;;;11.10;99.90;;;;;;5060039;28;20345;-60
2023/04/01 10:24:21;;;;;;;3.60;3.30;;;10.80;1.00;;;;;;5044395;28;20188;-59
2023/04/01 10:27:28;;;;;;;4.07;3.03;;;10.80;1.00;;;;;;5038898;28;20311;-62
2023/04/01 10:30:40;;;;;;;12.23;8.83;;;10.80;1.00;;;;;;5045225;28;20193;-59
2023/04/01 10:33:42;;;;;;;7.43;4.37;;;10.70;1.00;;;;;;5051776;28;20206;-60
2023/04/01 10:36:36;;;;;;;2.57;2.20;;;10.70;41.90;;;;;;5045261;28;20245;-59
2023/04/01 10:39:12;;;;;;;4.10;3.70;;;10.60;31.00;;;;;;5051199;28;20627;-59
2023/04/01 10:41:48;;;;;;;5.77;5.20;;;10.70;1.00;;;;;;5052822;28;20199;-58
2023/04/01 10:45:00;;;;;;;5.37;3.70;;;10.70;1.00;;;;;;5046259;28;20215;-58
2023/04/01 10:48:15;;;;;;;4.70;3.93;;;10.70;99.90;;;;;;5044782;28;20567;-58
2023/04/01 10:51:16;;;;;;;4.20;3.23;;;10.70;32.40;;;;;;5059943;28;20227;-60
2023/04/01 10:54:28;;;;;;;6.93;6.17;;;10.80;38.30;;;;;;5044760;28;20286;-59
2023/04/01 10:57:48;;;;;;;4.47;3.90;;;11.00;1.00;;;;;;5043236;28;20310;-58
2023/04/01 11:00:54;;;;;;;7.40;5.10;;;11.20;1.00;;;;;;5041985;28;20215;-59
2023/04/01 11:04:06;;;;;;;3.47;3.07;;;11.30;1.00;;;;;;5043388;28;20247;-58
2023/04/01 11:06:44;;;;;;;3.87;3.47;;;11.30;1.00;;;;;;5059147;28;20231;-60
2023/04/01 11:09:59;;;;;;;3.57;2.73;;;11.40;1.00;;;;;;5036816;28;20257;-65
2023/04/01 11:12:54;;;;;;;4.03;3.33;;;11.50;1.00;;;;;;5022025;28;20860;-66
2023/04/01 11:15:39;;;;;;;3.83;3.40;;;11.60;1.00;;;;;;5052584;28;20202;-66
2023/04/01 11:18:07;;;;;;;7.47;4.73;;;11.60;1.00;;;;;;5042185;28;20721;-67
2023/04/01 11:21:01;;;;;;;6.40;4.17;;;11.70;1.00;;;;;;5042965;28;20663;-66
2023/04/01 11:23:42;;;;;;;5.30;4.67;;;11.50;1.00;;;;;;5036706;28;20277;-67
2023/04/01 11:26:41;;;;;;;9.77;5.77;;;11.60;1.00;;;;;;5060588;28;20207;-65
2023/04/01 11:30:00;;;;;;;4.47;4.07;;;11.50;1.00;;;;;;5048977;28;20196;-66
2023/04/01 11:32:45;;;;;;;4.87;4.27;;;11.40;1.00;;;;;;5043032;28;20211;-65
2023/04/01 11:35:34;;;;;;;4.17;3.87;;;11.30;1.00;;;;;;5049503;28;20314;-66
2023/04/01 11:38:35;;;;;;;4.97;4.47;;;11.30;1.00;;;;;;5064415;28;20199;-67
2023/04/01 11:41:56;;;;;;;7.03;5.90;;;11.40;1.00;;;;;;4998225;28;20223;-70
2023/04/01 11:45:06;;;;;;;6.37;4.37;;;11.40;1.00;;;;;;5021705;28;20210;-60
2023/04/01 11:47:59;;;;;;;5.50;4.57;;;11.50;1.00;;;;;;5063488;28;20318;-60
2023/04/01 11:50:44;;;;;;;5.90;5.20;;;11.60;1.00;;;;;;5032753;28;20196;-60
2023/04/01 11:53:45;;;;;;;5.97;5.47;;;11.50;1.00;;;;;;5047820;28;20880;-59
2023/04/01 11:56:49;;;;;;;4.77;4.17;;;11.70;1.00;;;;;;5064343;28;20200;-59
2023/04/01 11:59:40;;;;;;;5.17;4.53;;;11.60;1.00;;;;;;5031598;28;20210;-60
2023/04/01 12:02:25;;;;;;;4.87;4.23;;;11.70;1.00;;;;;;5063966;28;20317;-60
2023/04/01 12:05:30;;;;;;;6.23;4.33;;;11.80;1.00;;;;;;5063600;28;20286;-59
2023/04/01 12:08:41;;;;;;;5.70;3.97;;;12.00;1.00;;;;;;5045820;28;20257;-58
2023/04/01 12:11:23;;;;;;;5.50;3.60;;;12.00;1.00;;;;;;5031641;28;20749;-62
2023/04/01 12:14:11;;;;;;;6.30;4.43;;;11.80;1.00;;;;;;5045408;28;20253;-61
2023/04/01 12:16:47;;;;;;;5.00;4.43;;;11.80;1.00;;;;;;5040355;28;20199;-61
2023/04/01 12:19:24;;;;;;;3.43;3.13;;;11.70;1.00;;;;;;5063484;28;20611;-59
2023/04/01 12:22:16;;;;;;;4.63;4.10;;;11.50;99.50;;;;;;5055409;28;20195;-61
2023/04/01 12:24:52;;;;;;;3.80;3.50;;;11.50;99.90;;;;;;5047869;28;20672;-59
2023/04/01 12:27:48;;;;;;;5.87;4.23;;;11.50;1.00;;;;;;5045234;28;20219;-59
2023/04/01 12:30:36;;;;;;;6.57;4.00;;;11.50;1.00;;;;;;5039506;28;20608;-61
2023/04/01 12:33:13;;;;;;;5.00;4.20;;;11.50;1.00;;;;;;5063841;28;20288;-62
2023/04/01 12:36:12;;;;;;;7.60;5.00;;;11.50;67.50;;;;;;5037579;28;20214;-60
2023/04/01 12:38:51;;;;;;;4.67;4.20;;;11.50;99.90;;;;;;5038133;28;20209;-60
2023/04/01 12:41:33;;;;;;;4.70;3.63;;;11.70;99.90;;;;;;5040023;28;20305;-61
2023/04/01 12:44:11;;;;;;;3.87;3.57;;;11.80;15.00;;;;;;5044321;28;20216;-59
2023/04/01 12:47:15;;;;;;;3.90;3.60;;;11.90;17.70;;;;;;5043586;28;20203;-61
2023/04/01 12:50:10;;;;;;;3.47;2.80;;;12.20;93.90;;;;;;5045242;28;20248;-60
2023/04/01 12:52:55;;;;;;;2.83;2.63;;;12.50;66.20;;;;;;5057337;28;20196;-60
2023/04/01 12:55:34;;;;;;;3.40;3.10;;;12.40;1.00;;;;;;5041574;28;20194;-61
2023/04/01 12:58:25;;;;;;;3.90;3.50;;;12.60;1.00;;;;;;5044200;28;20201;-60
2023/04/01 13:01:27;;;;;;;2.97;2.70;;;12.50;99.90;;;;;;5058620;28;20667;-59
2023/04/01 13:04:14;;;;;;;3.50;2.97;;;12.90;99.90;;;;;;5053496;28;20235;-59
2023/04/01 13:06:58;;;;;;;7.30;5.23;;;12.90;99.90;;;;;;5039973;28;20234;-61
2023/04/01 13:09:38;;;;;;;4.20;3.80;;;12.60;99.90;;;;;;5040128;28;20192;-61
2023/04/01 13:12:32;;;;;;;3.40;3.10;;;12.30;99.90;;;;;;5027210;28;20320;-60
2023/04/01 13:15:21;;;;;;;3.40;3.10;;;12.40;99.90;;;;;;5042607;28;20501;-59
2023/04/01 13:18:01;;;;;;;4.63;3.30;;;12.30;99.90;;;;;;5058529;28;20223;-60
2023/04/01 13:20:35;;;;;;;3.20;2.90;;;12.40;99.90;;;;;;5045781;28;20619;-60
2023/04/01 13:23:29;;;;;;;3.67;3.10;;;12.20;99.90;;;;;;5039642;28;20187;-59
2023/04/01 13:26:02;;;;;;;4.03;3.70;;;12.30;99.90;;;;;;5042117;28;20317;-58
2023/04/01 13:28:56;;;;;;;4.17;3.73;;;12.50;99.90;;;;;;5053916;28;20352;-59
2023/04/01 13:31:39;;;;;;;4.83;3.43;;;12.70;99.90;;;;;;5028401;28;20275;-60
2023/04/01 13:34:15;;;;;;;4.50;4.10;;;12.50;99.90;;;;;;5027963;28;20219;-60
2023/04/01 13:36:47;;;;;;;5.47;3.50;;;12.30;99.90;;;;;;5024878;28;20709;-59
2023/04/01 13:39:15;;;;;;;4.60;3.90;;;12.30;99.90;;;;;;5042711;28;20206;-59
2023/04/01 13:41:57;;;;;;;5.53;3.70;;;12.30;99.90;;;;;;5026831;28;20203;-61
2023/04/01 13:44:46;;;;;;;3.43;3.13;;;12.20;99.90;;;;;;5054468;28;20615;-59
2023/04/01 13:47:41;;;;;;;4.87;3.40;;;12.20;99.90;;;;;;5042761;28;20299;-60
2023/04/01 13:50:38;;;;;;;4.60;3.70;;;12.00;99.90;;;;;;5041729;28;20196;-59
2023/04/01 13:53:23;;;;;;;4.10;3.63;;;11.90;1.00;;;;;;5039689;28;20191;-62
2023/04/01 13:56:15;;;;;;;4.77;3.80;;;11.80;1.00;;;;;;5023146;28;20310;-61
2023/04/01 13:58:51;;;;;;;4.37;3.97;;;11.80;1.00;;;;;;5042448;28;20289;-60
2023/04/01 14:01:36;;;;;;;3.80;3.50;;;12.00;1.00;;;;;;5038623;28;20318;-60
2023/04/01 14:04:30;;;;;;;3.93;3.63;;;12.10;1.00;;;;;;5054681;28;20236;-60
2023/04/01 14:07:25;;;;;;;5.23;3.93;;;12.00;99.90;;;;;;5052383;28;20317;-59
2023/04/01 14:10:06;;;;;;;4.83;3.87;;;12.10;1.00;;;;;;5037559;28;20195;-61
2023/04/01 14:13:05;;;;;;;4.10;3.70;;;12.00;99.90;;;;;;5026522;28;20237;-60